AGROMETEOROLOŠKI PORTAL

vinorodna pokrajina

Temelj dobrega kmetovanja

Pregled podatkov za lokacijo Rimske Toplice DRSI, meteorološka postaja 7

Pregled senzorjev na lokaciji

ID Ime Zadnja
vrednost
Datum in čas
meritve
(lokalni čas)
Tip
senzorja
6428 Zračni tlak (hPa) 990 hPa 27.1.2023 03:00 DRSI
6425 Relativna zračna vlaga (2 m) (% RH) 79 % RH 27.1.2023 03:00 DRSI
6424 Temperatura (2 m) (°C) 0,9 °C 27.1.2023 03:00 DRSI
6427 Smer vetra (2 m) (°) 200 ° 27.1.2023 03:00 DRSI
6426 Hitrost vetra (2 m) (km/h) 3 km/h 27.1.2023 03:00 DRSI

Pregled podatkov zadnjih 24 ur

Zap.
št.
Datum in čas
(lokalni čas)
Rimske Toplice DRSI
Zračni
tlak
Relativna
zračna
vlaga
(2
m)
Temperatura
(2
m)
Smer
vetra
(2
m)
Hitrost
vetra
(2
m)
1 27.1.2023 03:00 990 79,3 0,9 199,7 2,6
2 27.1.2023 02:30 990 80 0,9 287,4 2
3 27.1.2023 02:00 990 78,7 0,9 246 2,2
4 27.1.2023 01:30 990 80 0,8 201,3 3,7
5 27.1.2023 01:00 990 76,7 1,2 166 1,8
6 27.1.2023 00:30 990 76 1,1 212,6 2,9
7 27.1.2023 00:00 990,3 77,7 1 192,8 2,2
8 26.1.2023 23:30 991 76,3 1,2 216,7 3,1
9 26.1.2023 23:00 991 76,3 1,4 205 3,1
10 26.1.2023 22:30 991 78 1,4 150,8 3
11 26.1.2023 22:00 991 80 1,5 186,1 1,6
12 26.1.2023 21:30 991 80 1,6 193,7 2,2
13 26.1.2023 21:00 991 78,3 1,6 186,5 2,8
14 26.1.2023 20:30 991 78,7 1,4 238,5 3,4
15 26.1.2023 20:00 991 78 1,4 227,5 2,2
16 26.1.2023 19:30 991 78 1,4 216,4 3,7
17 26.1.2023 19:00 991 79 1,4 226,1 2,9
18 26.1.2023 18:30 991 77,7 1,5 212,7 2,2
19 26.1.2023 18:00 991 76 1,7 172,9 2,2
20 26.1.2023 17:30 991 77 1,7 198,6 2,8
21 26.1.2023 17:00 991 77,7 1,8 193,8 2,4
22 26.1.2023 16:30 991 75,7 2 190,7 2,5
23 26.1.2023 16:00 991 74 2,3 183 2,8
24 26.1.2023 15:30 991 73 2,5 170,7 2,3
25 26.1.2023 15:00 991 72 2,5 145,8 3
26 26.1.2023 14:30 991 71,7 2,6 76,5 4,4
27 26.1.2023 14:00 991,6 70 2,8 83,7 3,2
28 26.1.2023 13:30 991,9 71,3 2,8 359,8 2,6
29 26.1.2023 13:00 991,9 73 2,8 317,9 2,8
30 26.1.2023 12:30 992,9 72,3 2,8 127,8 2,8
31 26.1.2023 12:00 992,9 72,7 2,8 326,7 2
32 26.1.2023 11:30 992,9 72 2,5 97,9 2,9
33 26.1.2023 11:00 993,9 73 2,4 58,7 3,7
34 26.1.2023 10:30 993,9 76 2,1 193,2 1,8
35 26.1.2023 10:00 993,9 76,7 2 164,9 1,4
36 26.1.2023 09:30 993,9 76,3 1,8 182,5 3,6
37 26.1.2023 09:00 993,9 77,7 1,8 161,8 2
38 26.1.2023 08:30 993,9 80 1,5 150 3,4
39 26.1.2023 08:00 993,9 83,7 1,3 158,8 3,2
40 26.1.2023 07:30 993,9 85 1,2 135,8 2,9
41 26.1.2023 07:00 993,9 87,3 1,2 144,4 1,8
42 26.1.2023 06:30 993,9 87 1,2 228,2 3,1
43 26.1.2023 06:00 993,9 87,7 1,2 207,7 2
44 26.1.2023 05:30 994,2 87,7 1,3 244,2 2
45 26.1.2023 05:00 994,9 87 1,2 157,1 2,5
46 26.1.2023 04:30 994,9 87,3 1,2 206 2,4
47 26.1.2023 04:00 994,9 88,3 1,2 207,6 2,8
48 26.1.2023 03:30 995,8 88,3 1,4 203 2,4